Time;durP1;ratioP1;P1;durP2;ratioP2;P2;SDS_P1;SDS_P2;PMS_P1;PMS_P2;Temp;Humidity;BMP_temperature;BMP_pressure;BME280_temperature;BME280_humidity;BME280_pressure;Samples;Min_cycle;Max_cycle;Signal;HPM_P1;HPM_P2
2023/03/03 00:01:33;;;;;;;39.65;26.27;;;;;;;4.97;60.50;100986.94;4162609;28;20479;-64
2023/03/03 00:03:36;;;;;;;38.92;25.98;;;;;;;4.97;60.59;100981.78;4162885;28;20441;-64
2023/03/03 00:05:39;;;;;;;38.75;26.08;;;;;;;4.98;60.67;100983.53;4162491;28;20064;-64
2023/03/03 00:07:43;;;;;;;38.63;27.55;;;;;;;4.95;60.82;100984.31;4165057;28;20121;-64
2023/03/03 00:09:46;;;;;;;40.80;26.77;;;;;;;4.92;60.77;100980.69;4164907;28;20045;-64
2023/03/03 00:11:55;;;;;;;42.67;26.13;;;;;;;4.88;60.88;100983.13;4163542;28;20736;-64
2023/03/03 00:13:58;;;;;;;41.83;25.52;;;;;;;4.85;60.84;100975.25;4160363;28;20040;-64
2023/03/03 00:16:13;;;;;;;40.90;25.70;;;;;;;4.88;60.69;100977.09;4165286;28;20068;-64
2023/03/03 00:18:26;;;;;;;41.00;26.58;;;;;;;4.82;60.84;100982.84;4164964;28;20053;-64
2023/03/03 00:20:34;;;;;;;39.50;27.48;;;;;;;4.80;60.83;100987.03;4164670;28;20132;-64
2023/03/03 00:22:39;;;;;;;41.08;26.95;;;;;;;4.74;60.94;100994.47;4164878;28;20039;-64
2023/03/03 00:24:41;;;;;;;42.50;28.38;;;;;;;4.70;60.92;100995.16;4164869;28;20033;-63
2023/03/03 00:26:45;;;;;;;44.63;27.58;;;;;;;4.67;61.03;100990.75;4163893;28;20037;-64
2023/03/03 00:28:50;;;;;;;42.65;26.83;;;;;;;4.67;61.41;100992.44;4164477;28;20038;-63
2023/03/03 00:30:55;;;;;;;39.25;27.02;;;;;;;4.64;61.46;100992.28;4163213;28;20124;-63
2023/03/03 00:32:58;;;;;;;41.92;25.55;;;;;;;4.67;61.38;101002.72;4166763;28;20044;-63
2023/03/03 00:35:24;;;;;;;43.95;26.60;;;;;;;4.67;61.75;101002.72;4178935;28;20409;-63
2023/03/03 00:37:30;;;;;;;42.05;26.75;;;;;;;4.62;61.80;101004.22;4164242;28;20111;-63
2023/03/03 00:39:36;;;;;;;47.97;27.75;;;;;;;4.58;61.69;100995.47;4163808;28;20033;-63
2023/03/03 00:41:40;;;;;;;40.03;27.73;;;;;;;4.53;61.47;100996.94;4162365;28;20129;-63
2023/03/03 00:43:43;;;;;;;44.03;27.38;;;;;;;4.50;62.10;100999.38;4165085;28;20411;-63
2023/03/03 00:45:47;;;;;;;43.65;26.90;;;;;;;4.51;61.81;100996.88;4162752;28;20046;-63
2023/03/03 00:47:50;;;;;;;43.38;28.67;;;;;;;4.52;61.63;100993.47;4162430;28;20038;-64
2023/03/03 00:49:54;;;;;;;38.55;27.17;;;;;;;4.52;61.62;101000.31;4162488;28;20037;-63
2023/03/03 00:51:58;;;;;;;41.43;27.27;;;;;;;4.51;61.82;101004.59;4178374;28;20037;-63
2023/03/03 00:54:04;;;;;;;45.70;27.33;;;;;;;4.51;61.82;101001.13;4178043;28;20870;-63
2023/03/03 00:56:07;;;;;;;41.55;26.73;;;;;;;4.50;61.75;101004.53;4179591;28;20037;-63
2023/03/03 00:58:10;;;;;;;38.78;24.92;;;;;;;4.46;62.04;101007.75;4179814;28;20041;-63
2023/03/03 01:00:18;;;;;;;44.97;29.33;;;;;;;4.42;61.77;101011.88;4162983;28;20049;-63
2023/03/03 01:02:21;;;;;;;43.35;28.40;;;;;;;4.40;62.10;101008.34;4164245;28;20380;-63
2023/03/03 01:04:24;;;;;;;42.08;27.30;;;;;;;4.41;62.00;101010.13;4163030;28;20033;-63
2023/03/03 01:06:27;;;;;;;43.17;26.75;;;;;;;4.33;61.94;101014.00;4164231;28;20048;-63
2023/03/03 01:08:32;;;;;;;37.80;26.33;;;;;;;4.28;61.84;101008.66;4163842;28;20034;-63
2023/03/03 01:10:40;;;;;;;44.05;30.30;;;;;;;4.25;61.72;101018.78;4163241;28;20558;-63
2023/03/03 01:12:43;;;;;;;40.22;26.20;;;;;;;4.23;61.81;101007.53;4162976;28;20438;-62
2023/03/03 01:14:48;;;;;;;43.55;28.60;;;;;;;4.21;62.12;100996.28;4164172;28;20120;-63
2023/03/03 01:16:50;;;;;;;42.22;26.88;;;;;;;4.21;62.39;101004.00;4160296;28;20454;-63
2023/03/03 01:18:53;;;;;;;44.13;28.08;;;;;;;4.23;62.02;101009.22;4164027;28;20087;-63
2023/03/03 01:20:56;;;;;;;41.78;28.80;;;;;;;4.24;61.82;101016.16;4162636;28;20129;-63
2023/03/03 01:22:59;;;;;;;47.47;30.08;;;;;;;4.22;62.16;101007.44;4157232;28;20403;-63
2023/03/03 01:25:04;;;;;;;45.90;27.75;;;;;;;4.17;62.17;101000.38;4163765;28;20041;-63
2023/03/03 01:27:07;;;;;;;41.88;28.08;;;;;;;4.13;62.55;101001.06;4156784;28;20029;-63
2023/03/03 01:29:10;;;;;;;47.63;29.08;;;;;;;4.13;62.48;101008.78;4162641;28;20064;-63
2023/03/03 01:31:13;;;;;;;44.35;29.55;;;;;;;4.12;62.52;101003.56;4162440;28;20041;-63
2023/03/03 01:33:16;;;;;;;42.58;28.35;;;;;;;4.08;62.47;100999.06;4146118;28;20041;-63
2023/03/03 01:35:20;;;;;;;47.10;28.02;;;;;;;4.09;62.38;101006.88;4153397;28;20056;-63
2023/03/03 01:37:23;;;;;;;41.97;25.92;;;;;;;4.09;62.46;101004.28;4164945;28;20038;-63
2023/03/03 01:39:26;;;;;;;50.85;28.00;;;;;;;4.10;62.24;101005.16;4162473;28;20456;-63
2023/03/03 01:41:32;;;;;;;43.78;28.40;;;;;;;4.08;62.39;101007.66;4163374;28;20436;-63
2023/03/03 01:43:35;;;;;;;42.20;26.10;;;;;;;4.07;62.33;101007.59;4162879;28;20033;-63
2023/03/03 01:45:59;;;;;;;44.72;26.85;;;;;;;4.04;62.47;101003.16;4163605;28;20071;-63
2023/03/03 01:48:06;;;;;;;44.50;26.70;;;;;;;4.03;62.32;101009.16;4171388;28;20037;-63
2023/03/03 01:50:13;;;;;;;46.13;27.77;;;;;;;4.06;62.56;101006.72;4161492;28;20605;-63
2023/03/03 01:52:26;;;;;;;38.85;26.75;;;;;;;4.06;62.03;100996.44;4172326;28;20041;-63
2023/03/03 01:54:33;;;;;;;37.42;24.48;;;;;;;4.05;62.29;100988.63;4172525;28;20033;-63
2023/03/03 01:56:37;;;;;;;42.28;26.80;;;;;;;4.06;62.59;100993.84;4162269;28;20064;-63
2023/03/03 01:58:45;;;;;;;42.50;26.02;;;;;;;4.05;62.34;100994.66;4144136;28;20044;-63
2023/03/03 02:00:53;;;;;;;40.83;27.08;;;;;;;4.01;62.73;100995.31;4161313;28;20392;-63
2023/03/03 02:02:56;;;;;;;38.33;25.40;;;;;;;3.97;62.85;100990.81;4161307;28;20033;-63
2023/03/03 02:04:58;;;;;;;38.70;24.67;;;;;;;3.97;62.21;100995.94;4177337;28;20041;-63
2023/03/03 02:07:08;;;;;;;39.10;24.65;;;;;;;3.99;62.79;100999.50;4160088;28;20043;-63
2023/03/03 02:09:17;;;;;;;37.00;24.33;;;;;;;3.98;62.67;100993.44;4160150;28;20042;-63
2023/03/03 02:11:22;;;;;;;38.13;23.58;;;;;;;3.96;62.25;100991.63;4161685;28;20055;-63
2023/03/03 02:13:26;;;;;;;36.88;23.85;;;;;;;3.97;62.23;100995.94;4161208;28;20409;-63
2023/03/03 02:15:31;;;;;;;;;;;;;;;3.87;62.73;100988.59;4161829;28;20141;-63
2023/03/03 02:17:34;;;;;;;42.35;23.90;;;;;;;3.84;62.94;100994.44;4145554;28;19976;-63
2023/03/03 02:19:47;;;;;;;35.75;24.80;;;;;;;3.83;62.75;100991.00;4160923;28;20499;-63
2023/03/03 02:21:50;;;;;;;36.80;23.83;;;;;;;3.75;62.93;100987.19;4175909;28;20456;-63
2023/03/03 02:24:00;;;;;;;38.17;23.73;;;;;;;3.73;62.70;100983.63;4162385;28;20037;-63
2023/03/03 02:26:09;;;;;;;36.05;22.38;;;;;;;3.75;63.03;100994.00;4171344;28;20502;-63
2023/03/03 02:28:12;;;;;;;35.17;22.23;;;;;;;3.78;62.57;100991.59;4177632;28;20044;-63
2023/03/03 02:30:18;;;;;;;34.90;22.00;;;;;;;3.77;62.63;100988.13;4158007;28;20037;-63
2023/03/03 02:32:21;;;;;;;33.03;21.88;;;;;;;3.78;62.62;100994.16;4160961;28;20040;-63
2023/03/03 02:34:24;;;;;;;33.83;21.15;;;;;;;3.76;62.49;100993.22;4159829;28;20543;-63
2023/03/03 02:36:28;;;;;;;29.73;19.63;;;;;;;3.77;62.40;100990.72;4160858;28;20041;-63
2023/03/03 02:38:37;;;;;;;31.35;18.98;;;;;;;3.70;61.67;100995.47;4161539;28;20565;-63
2023/03/03 02:40:46;;;;;;;33.25;19.23;;;;;;;3.62;61.38;100995.06;4159088;28;20043;-63
2023/03/03 02:42:53;;;;;;;33.10;19.95;;;;;;;3.62;61.55;101002.78;4161010;28;20437;-63
2023/03/03 02:44:56;;;;;;;30.67;20.17;;;;;;;3.58;61.48;100996.63;4161285;28;20581;-63
2023/03/03 02:46:59;;;;;;;36.30;20.80;;;;;;;3.58;61.24;101001.75;4175563;28;20115;-63
2023/03/03 02:49:04;;;;;;;32.97;19.23;;;;;;;3.58;61.96;100999.19;4177712;28;20414;-63
2023/03/03 02:51:06;;;;;;;30.00;19.38;;;;;;;3.55;61.33;100996.47;4161661;28;20041;-64
2023/03/03 02:53:09;;;;;;;33.10;20.38;;;;;;;3.55;61.53;100995.56;4176790;28;20047;-64
2023/03/03 02:55:14;;;;;;;29.00;19.27;;;;;;;3.53;61.36;101000.63;4156467;28;20041;-63
2023/03/03 02:57:35;;;;;;;28.85;18.83;;;;;;;3.48;61.27;101000.38;4158388;28;20092;-63
2023/03/03 02:59:40;;;;;;;28.27;18.27;;;;;;;3.48;61.28;101004.66;4178070;28;20425;-64
2023/03/03 03:01:47;;;;;;;28.55;17.20;;;;;;;3.43;60.80;100991.56;4160181;28;20518;-64
2023/03/03 03:03:52;;;;;;;28.92;17.70;;;;;;;3.37;60.72;100996.38;4162904;28;20120;-63
2023/03/03 03:05:57;;;;;;;;;;;;;;;3.27;60.75;100994.13;4161896;28;20091;-64
2023/03/03 03:08:00;;;;;;;26.73;17.80;;;;;;;3.27;61.03;100997.59;4161180;28;19952;-63
2023/03/03 03:10:05;;;;;;;30.23;19.10;;;;;;;3.32;61.27;100991.00;4161353;28;20435;-64
2023/03/03 03:12:11;;;;;;;38.53;23.33;;;;;;;3.36;61.40;100993.72;4161122;28;20029;-64
2023/03/03 03:14:15;;;;;;;34.75;21.92;;;;;;;3.39;62.18;100999.91;4169936;28;20037;-64
2023/03/03 03:16:20;;;;;;;34.55;22.88;;;;;;;3.47;61.79;100995.16;4163226;28;20037;-63
2023/03/03 03:18:23;;;;;;;38.10;22.25;;;;;;;3.48;62.10;100992.69;4161149;28;20136;-64
2023/03/03 03:20:27;;;;;;;30.90;17.50;;;;;;;3.54;60.54;100998.94;4144335;28;20042;-64
2023/03/03 03:22:30;;;;;;;27.63;17.60;;;;;;;3.55;60.07;100998.13;4155086;28;20284;-64
2023/03/03 03:24:33;;;;;;;23.42;15.60;;;;;;;3.60;58.48;100995.00;4161905;28;20489;-64
2023/03/03 03:26:39;;;;;;;22.75;14.88;;;;;;;3.56;57.48;100989.63;4143133;28;20096;-64
2023/03/03 03:28:42;;;;;;;24.10;15.32;;;;;;;3.55;57.39;100992.97;4161220;28;20116;-64
2023/03/03 03:30:45;;;;;;;26.60;15.18;;;;;;;3.56;57.72;100993.06;4143676;28;20062;-64
2023/03/03 03:32:49;;;;;;;26.77;16.13;;;;;;;3.56;58.03;101002.47;4143918;28;20084;-65
2023/03/03 03:34:52;;;;;;;27.08;17.35;;;;;;;3.54;58.75;101001.53;4156988;28;20042;-64
2023/03/03 03:36:55;;;;;;;31.50;19.55;;;;;;;3.51;59.48;101003.94;4160604;28;20042;-64
2023/03/03 03:39:01;;;;;;;23.65;15.93;;;;;;;3.48;59.27;101008.09;4161191;28;20056;-64
2023/03/03 03:41:07;;;;;;;23.35;14.98;;;;;;;3.45;58.87;101010.50;4175573;28;20103;-63
2023/03/03 03:43:10;;;;;;;23.33;15.48;;;;;;;3.46;58.84;101012.28;4180571;28;20029;-63
2023/03/03 03:45:14;;;;;;;24.90;15.40;;;;;;;3.44;58.27;101005.28;4164581;28;20056;-64
2023/03/03 03:47:20;;;;;;;22.98;14.90;;;;;;;3.38;58.78;101005.84;4164558;28;20120;-64
2023/03/03 03:49:25;;;;;;;26.10;15.95;;;;;;;3.37;58.64;101009.22;4164981;28;20091;-64
2023/03/03 03:51:32;;;;;;;23.38;14.32;;;;;;;3.35;59.20;101005.69;4175205;28;20033;-63
2023/03/03 03:53:35;;;;;;;25.27;15.82;;;;;;;3.31;59.02;101004.69;4161953;28;20065;-64
2023/03/03 03:55:38;;;;;;;23.73;14.82;;;;;;;3.27;58.86;101013.03;4162248;28;20053;-63
2023/03/03 03:57:41;;;;;;;25.13;13.57;;;;;;;3.30;59.17;101014.84;4137878;28;20047;-64
2023/03/03 03:59:44;;;;;;;26.45;15.90;;;;;;;3.29;58.99;101013.97;4163118;28;20049;-64
2023/03/03 04:01:48;;;;;;;26.30;15.63;;;;;;;3.28;58.65;101017.31;4160753;28;20103;-63
2023/03/03 04:03:52;;;;;;;24.05;16.42;;;;;;;3.19;58.31;101022.00;4163103;28;20085;-63
2023/03/03 04:05:59;;;;;;;22.98;14.52;;;;;;;3.19;58.84;101021.13;4163623;28;20038;-64
2023/03/03 04:08:02;;;;;;;21.67;14.40;;;;;;;3.18;58.96;101027.06;4158017;28;20051;-64
2023/03/03 04:10:06;;;;;;;25.75;14.30;;;;;;;3.18;58.80;101019.34;4163948;28;20033;-64
2023/03/03 04:12:09;;;;;;;22.40;13.80;;;;;;;3.20;59.22;101017.72;4156936;28;20542;-64
2023/03/03 04:14:12;;;;;;;21.95;13.95;;;;;;;3.19;59.23;101018.56;4163754;28;20034;-64
2023/03/03 04:16:15;;;;;;;19.75;11.82;;;;;;;3.26;57.21;101013.81;4163989;28;20044;-64
2023/03/03 04:18:18;;;;;;;19.90;11.55;;;;;;;3.26;57.53;101021.53;4163991;28;20041;-64
2023/03/03 04:20:21;;;;;;;19.98;12.77;;;;;;;3.23;57.26;101015.34;4162970;28;20041;-64
2023/03/03 04:22:26;;;;;;;24.90;13.05;;;;;;;3.27;57.18;101014.69;4147484;28;20411;-64
2023/03/03 04:24:29;;;;;;;24.02;13.65;;;;;;;3.24;57.17;101014.53;4161467;28;20033;-64
2023/03/03 04:26:32;;;;;;;17.90;12.13;;;;;;;3.23;57.11;101015.34;4148036;28;20253;-64
2023/03/03 04:28:37;;;;;;;24.17;15.00;;;;;;;3.18;57.18;101012.50;4162587;28;20125;-64
2023/03/03 04:30:40;;;;;;;22.25;13.20;;;;;;;3.18;57.26;101016.78;4146709;28;20088;-65
2023/03/03 04:32:43;;;;;;;21.35;12.55;;;;;;;3.18;57.50;101015.06;4175166;28;20035;-64
2023/03/03 04:34:47;;;;;;;22.80;11.63;;;;;;;3.18;57.03;101021.91;4163798;28;20029;-64
2023/03/03 04:37:03;;;;;;;19.70;12.45;;;;;;;3.20;57.31;101017.72;4161456;28;20108;-64
2023/03/03 04:39:08;;;;;;;19.25;12.45;;;;;;;3.20;56.71;101010.03;4163554;28;20065;-64
2023/03/03 04:41:11;;;;;;;21.08;12.27;;;;;;;3.16;57.34;101016.69;4176874;28;20133;-64
2023/03/03 04:43:14;;;;;;;21.30;13.10;;;;;;;3.18;57.61;101014.22;4174315;28;20037;-64
2023/03/03 04:45:17;;;;;;;20.42;12.77;;;;;;;3.20;57.47;101021.19;4164954;28;20037;-63
2023/03/03 04:47:21;;;;;;;20.65;12.88;;;;;;;3.21;56.95;101025.50;4163725;28;20061;-64
2023/03/03 04:49:24;;;;;;;21.30;12.73;;;;;;;3.24;57.43;101024.81;4179975;28;20037;-63
2023/03/03 04:51:27;;;;;;;19.08;13.55;;;;;;;3.28;56.81;101021.59;4162593;28;20302;-64
2023/03/03 04:53:30;;;;;;;20.42;13.48;;;;;;;3.30;56.58;101026.03;4179017;28;20040;-63
2023/03/03 04:55:36;;;;;;;21.98;13.15;;;;;;;3.32;56.07;101029.53;4146387;28;20337;-64
2023/03/03 04:57:39;;;;;;;21.90;13.70;;;;;;;3.30;56.94;101030.25;4172311;28;20123;-64
2023/03/03 04:59:42;;;;;;;23.50;15.00;;;;;;;3.27;56.71;101031.00;4155792;28;20034;-64
2023/03/03 05:01:46;;;;;;;21.17;14.05;;;;;;;3.20;57.03;101033.16;4158865;28;20037;-64
2023/03/03 05:03:49;;;;;;;19.08;12.88;;;;;;;3.24;57.21;101042.78;4179190;28;20037;-64
2023/03/03 05:05:53;;;;;;;24.17;15.43;;;;;;;3.31;56.75;101038.06;4162607;28;20580;-64
2023/03/03 05:07:56;;;;;;;24.67;16.52;;;;;;;3.30;57.36;101041.44;4146596;28;20044;-64
2023/03/03 05:09:59;;;;;;;22.48;16.05;;;;;;;3.30;57.18;101040.53;4161572;28;20067;-64
2023/03/03 05:12:03;;;;;;;26.90;17.02;;;;;;;3.27;57.04;101041.28;4161387;28;20045;-64
2023/03/03 05:14:07;;;;;;;25.45;17.27;;;;;;;3.21;57.94;101046.06;4160248;28;20038;-64
2023/03/03 05:16:10;;;;;;;24.95;17.05;;;;;;;3.20;57.70;101038.28;4163206;28;20044;-64
2023/03/03 05:18:13;;;;;;;25.77;16.85;;;;;;;3.16;57.91;101047.53;4164899;28;20558;-63
2023/03/03 05:20:17;;;;;;;25.17;16.70;;;;;;;3.18;58.01;101050.19;4175840;23;20107;-64
2023/03/03 05:22:19;;;;;;;24.80;17.40;;;;;;;3.16;58.27;101054.38;4163047;28;20044;-64
2023/03/03 05:24:22;;;;;;;26.92;17.30;;;;;;;3.24;58.65;101056.53;4163499;28;20296;-64
2023/03/03 05:26:25;;;;;;;26.15;17.92;;;;;;;3.14;58.31;101060.28;4164238;28;20041;-64
2023/03/03 05:28:30;;;;;;;30.88;18.45;;;;;;;3.09;59.16;101056.56;4164129;28;21653;-64
2023/03/03 05:30:33;;;;;;;;;;;;;;;2.98;59.29;101067.97;4162871;28;20403;-64
2023/03/03 05:32:36;;;;;;;36.63;17.88;;;;;;;3.01;59.28;101068.13;4158571;28;19971;-63
2023/03/03 05:34:39;;;;;;;25.60;18.55;;;;;;;3.06;59.28;101069.25;4162245;28;20095;-64
2023/03/03 05:36:42;;;;;;;29.65;18.88;;;;;;;3.09;59.97;101069.41;4162622;28;20491;-63
2023/03/03 05:38:45;;;;;;;26.45;18.70;;;;;;;2.85;59.95;101073.22;4163972;28;20502;-63
2023/03/03 05:40:48;;;;;;;32.40;19.45;;;;;;;2.88;60.08;101070.84;4163506;28;20049;-63
2023/03/03 05:42:51;;;;;;;32.78;20.15;;;;;;;2.84;59.86;101074.03;4163607;28;20090;-63
2023/03/03 05:44:55;;;;;;;28.42;19.65;;;;;;;2.74;60.68;101073.50;4162481;28;20061;-64
2023/03/03 05:46:58;;;;;;;30.67;20.27;;;;;;;2.71;60.63;101082.72;4163751;28;20037;-63
2023/03/03 05:49:02;;;;;;;30.38;20.23;;;;;;;2.88;60.41;101082.00;4163407;28;20214;-64
2023/03/03 05:51:05;;;;;;;28.27;18.80;;;;;;;2.77;60.30;101091.69;4171724;28;20450;-64
2023/03/03 05:53:08;;;;;;;26.83;17.08;;;;;;;2.77;60.28;101089.09;4163648;28;20034;-65
2023/03/03 05:55:11;;;;;;;30.92;20.00;;;;;;;2.90;59.86;101094.91;4163839;28;20482;-65
2023/03/03 05:57:14;;;;;;;28.73;18.38;;;;;;;2.82;60.21;101091.03;4162328;28;20041;-64
2023/03/03 05:59:17;;;;;;;29.00;18.80;;;;;;;2.85;60.15;101092.09;4163716;28;20080;-65
2023/03/03 06:01:22;;;;;;;30.85;21.80;;;;;;;2.82;60.16;101093.59;4162749;28;20064;-65
2023/03/03 06:03:24;;;;;;;30.65;21.90;;;;;;;2.74;60.75;101098.31;4162620;28;20034;-64
2023/03/03 06:05:27;;;;;;;29.88;19.65;;;;;;;2.70;61.14;101097.25;4159495;28;20041;-65
2023/03/03 06:07:30;;;;;;;26.70;19.70;;;;;;;2.73;60.55;101091.38;4160367;28;20495;-64
2023/03/03 06:09:33;;;;;;;33.03;19.40;;;;;;;2.69;60.73;101089.47;4163332;28;20108;-65
2023/03/03 06:11:37;;;;;;;33.53;20.35;;;;;;;2.64;61.30;101089.19;4161413;28;20496;-64
2023/03/03 06:13:41;;;;;;;36.05;21.05;;;;;;;2.68;61.74;101093.69;4162742;28;20478;-65
2023/03/03 06:15:44;;;;;;;29.08;20.65;;;;;;;2.72;61.55;101094.78;4163396;28;20029;-65
2023/03/03 06:17:48;;;;;;;34.05;20.10;;;;;;;2.68;61.53;101090.25;4163339;28;20046;-65
2023/03/03 06:19:51;;;;;;;34.88;20.25;;;;;;;2.65;61.41;101088.41;4162518;28;20045;-65
2023/03/03 06:21:54;;;;;;;31.20;20.33;;;;;;;2.65;61.64;101085.84;4158912;28;20044;-64
2023/03/03 06:23:56;;;;;;;28.92;20.15;;;;;;;2.67;61.36;101091.94;4160940;28;20041;-64
2023/03/03 06:25:59;;;;;;;31.95;20.70;;;;;;;2.65;61.49;101083.28;4142284;28;20044;-64
2023/03/03 06:28:03;;;;;;;33.33;20.63;;;;;;;2.66;61.80;101089.28;4162017;28;20033;-65
2023/03/03 06:30:07;;;;;;;33.50;21.48;;;;;;;2.66;61.96;101091.84;4160715;28;20036;-65
2023/03/03 06:32:10;;;;;;;30.60;19.10;;;;;;;2.60;61.61;101097.53;4161537;28;20124;-65
2023/03/03 06:34:14;;;;;;;29.02;18.30;;;;;;;2.60;61.57;101100.97;4155019;28;20380;-65
2023/03/03 06:36:18;;;;;;;36.83;18.98;;;;;;;2.62;62.02;101103.63;4162853;28;20041;-65
2023/03/03 06:38:21;;;;;;;30.90;20.85;;;;;;;2.65;61.78;101102.94;4145721;28;20049;-64
2023/03/03 06:40:23;;;;;;;37.22;21.63;;;;;;;2.68;61.50;101106.53;4154331;28;20045;-64
2023/03/03 06:42:26;;;;;;;32.20;21.40;;;;;;;2.74;62.19;101113.72;4153737;28;20037;-64
2023/03/03 06:44:29;;;;;;;30.20;20.85;;;;;;;2.74;61.64;101109.44;4155900;28;20041;-65
2023/03/03 06:46:32;;;;;;;34.88;21.50;;;;;;;2.85;61.47;101122.00;4158387;28;20084;-64
2023/03/03 06:48:35;;;;;;;35.90;20.88;;;;;;;2.85;61.84;101124.56;4156336;28;20049;-63
2023/03/03 06:50:42;;;;;;;36.95;21.67;;;;;;;2.89;61.94;101124.84;4156307;28;20464;-63
2023/03/03 06:53:07;;;;;;;32.28;21.63;;;;;;;2.94;61.66;101131.13;4155669;28;20546;-64
2023/03/03 06:55:13;;;;;;;38.28;21.05;;;;;;;3.09;61.14;101138.78;4153019;28;20098;-64
2023/03/03 06:57:20;;;;;;;33.75;22.15;;;;;;;3.19;60.80;101152.16;4162613;28;20104;-64
2023/03/03 06:59:23;;;;;;;38.38;22.50;;;;;;;3.16;60.82;101145.16;4162209;28;20076;-63
2023/03/03 07:01:30;;;;;;;34.33;23.35;;;;;;;3.11;60.47;101152.63;4169715;28;20379;-62
2023/03/03 07:03:34;;;;;;;36.63;24.33;;;;;;;3.07;60.98;101157.50;4159348;28;20094;-63
2023/03/03 07:05:37;;;;;;;47.47;25.73;;;;;;;3.00;61.46;101153.69;4161365;28;20038;-63
2023/03/03 07:07:42;;;;;;;39.85;25.77;;;;;;;2.90;61.94;101152.28;4163192;28;20064;-63
2023/03/03 07:09:45;;;;;;;40.17;23.27;;;;;;;2.94;62.21;101145.66;4161534;28;20037;-63
2023/03/03 07:11:48;;;;;;;40.25;24.73;;;;;;;2.91;61.56;101155.75;4154410;28;20069;-62
2023/03/03 07:13:53;;;;;;;37.78;24.73;;;;;;;2.92;62.57;101155.84;4161676;28;20056;-62
2023/03/03 07:16:01;;;;;;;39.92;25.05;;;;;;;2.94;62.15;101154.22;4163007;28;20047;-63
2023/03/03 07:18:22;;;;;;;43.08;24.95;;;;;;;2.89;62.41;101159.91;4170911;28;20055;-63
2023/03/03 07:20:31;;;;;;;39.97;24.58;;;;;;;2.81;62.80;101161.16;4153532;28;20048;-63
2023/03/03 07:22:34;;;;;;;43.13;24.85;;;;;;;2.73;63.14;101161.63;4157976;28;20124;-63
2023/03/03 07:24:38;;;;;;;42.13;24.58;;;;;;;2.87;63.18;101158.94;4160522;28;20037;-63
2023/03/03 07:26:41;;;;;;;35.95;24.95;;;;;;;2.95;62.87;101158.56;4157028;28;20041;-62
2023/03/03 07:28:46;;;;;;;40.55;26.17;;;;;;;2.95;63.01;101161.16;4173859;28;20037;-63
2023/03/03 07:30:49;;;;;;;;;;;;;;;2.91;62.58;101164.34;4161156;28;20179;-63
2023/03/03 07:32:55;;;;;;;40.05;24.90;;;;;;;2.98;62.63;101165.56;4158108;28;19931;-64
2023/03/03 07:34:58;;;;;;;37.90;24.17;;;;;;;2.98;62.88;101175.84;4161347;28;20033;-63
2023/03/03 07:37:05;;;;;;;41.40;25.30;;;;;;;3.00;62.75;101171.66;4162380;28;20034;-64
2023/03/03 07:39:28;;;;;;;44.17;25.70;;;;;;;3.10;62.90;101171.38;4154400;28;20584;-63
2023/03/03 07:41:34;;;;;;;46.90;26.42;;;;;;;3.11;62.98;101178.31;4157334;28;20076;-63
2023/03/03 07:43:39;;;;;;;38.75;26.38;;;;;;;3.16;62.73;101175.09;4155663;28;20125;-63
2023/03/03 07:45:43;;;;;;;42.55;27.77;;;;;;;3.18;62.64;101179.50;4144544;28;20530;-64
2023/03/03 07:47:46;;;;;;;43.88;27.15;;;;;;;3.22;62.69;101185.72;4159102;28;20187;-65
2023/03/03 07:49:50;;;;;;;44.90;26.83;;;;;;;3.21;62.77;101187.38;4161691;28;20037;-64
2023/03/03 07:51:56;;;;;;;54.60;26.42;;;;;;;3.26;62.21;101183.41;4157628;28;20120;-65
2023/03/03 07:54:14;;;;;;;48.08;26.77;;;;;;;3.22;63.10;101184.03;4156109;28;20042;-64
2023/03/03 07:56:28;;;;;;;44.38;25.13;;;;;;;3.24;62.43;101195.28;4156716;28;20034;-64
2023/03/03 07:58:38;;;;;;;47.88;27.17;;;;;;;3.38;62.46;101197.72;4162421;28;20045;-63
2023/03/03 08:01:19;;;;;;;42.15;26.63;;;;;;;3.44;62.09;101193.81;4161261;28;20483;-64
2023/03/03 08:03:22;;;;;;;42.55;28.33;;;;;;;3.34;62.51;101186.38;4159719;28;20041;-64
2023/03/03 08:05:31;;;;;;;43.78;27.98;;;;;;;3.26;62.69;101187.66;4161335;28;20038;-64
2023/03/03 08:07:36;;;;;;;52.05;28.45;;;;;;;3.34;62.62;101191.53;4158053;28;21306;-64
2023/03/03 08:09:43;;;;;;;51.33;30.30;;;;;;;3.48;62.69;101195.75;4157689;28;20065;-64
2023/03/03 08:11:51;;;;;;;44.67;28.00;;;;;;;3.58;61.87;101198.84;4160911;28;20492;-64
2023/03/03 08:13:56;;;;;;;45.63;29.35;;;;;;;3.53;62.36;101208.84;4139943;28;20062;-64
2023/03/03 08:16:02;;;;;;;52.67;29.38;;;;;;;3.54;62.81;101204.59;4153786;28;20038;-64
2023/03/03 08:18:17;;;;;;;48.58;28.80;;;;;;;3.55;62.41;101212.41;4153036;28;20069;-64
2023/03/03 08:20:43;;;;;;;49.65;30.25;;;;;;;3.44;62.48;101214.38;4160506;28;20044;-64
2023/03/03 08:22:46;;;;;;;46.83;28.88;;;;;;;3.55;62.38;101217.53;4160287;28;20067;-65
2023/03/03 08:24:49;;;;;;;49.72;29.35;;;;;;;3.55;62.35;101224.34;4161364;28;20511;-65
2023/03/03 08:26:52;;;;;;;49.72;30.08;;;;;;;3.45;62.94;101218.72;4161508;28;20033;-65
2023/03/03 08:28:57;;;;;;;60.33;30.10;;;;;;;3.64;62.86;101219.72;4163464;28;20030;-65
2023/03/03 08:31:00;;;;;;;51.17;31.92;;;;;;;3.69;62.65;101219.97;4157488;28;20487;-65
2023/03/03 08:33:19;;;;;;;48.17;30.08;;;;;;;3.62;63.31;101219.66;4157962;28;20097;-65
2023/03/03 08:35:22;;;;;;;49.03;30.40;;;;;;;3.67;62.93;101227.59;4159029;28;20113;-64
2023/03/03 08:37:26;;;;;;;53.70;31.00;;;;;;;3.81;63.23;101236.97;4156343;28;20038;-64
2023/03/03 08:39:28;;;;;;;50.22;30.17;;;;;;;3.91;62.71;101230.59;4163573;28;20042;-64
2023/03/03 08:41:31;;;;;;;46.40;31.25;;;;;;;3.90;62.17;101228.84;4163693;28;20055;-64
2023/03/03 08:43:34;;;;;;;46.30;29.25;;;;;;;3.90;62.50;101215.09;4163400;28;20042;-64
2023/03/03 08:45:39;;;;;;;47.40;28.98;;;;;;;3.98;62.13;101216.41;4162638;28;20095;-64
2023/03/03 08:47:42;;;;;;;50.13;31.88;;;;;;;3.84;62.50;101213.06;4159294;28;20380;-64
2023/03/03 08:49:44;;;;;;;51.78;30.52;;;;;;;3.86;63.01;101213.19;4163277;28;20049;-64
2023/03/03 08:51:47;;;;;;;52.80;30.70;;;;;;;3.95;62.41;101223.94;4165549;28;20036;-63
2023/03/03 08:53:50;;;;;;;52.20;31.73;;;;;;;4.04;61.97;101216.72;4155476;28;20404;-64
2023/03/03 08:55:53;;;;;;;47.25;29.08;;;;;;;4.01;62.56;101219.13;4155831;28;20080;-63
2023/03/03 08:57:56;;;;;;;52.35;31.70;;;;;;;4.12;62.31;101219.72;4161973;28;20036;-62
2023/03/03 08:59:59;;;;;;;53.53;31.27;;;;;;;4.21;61.90;101221.88;4148657;28;20072;-63
2023/03/03 09:02:03;;;;;;;52.65;29.73;;;;;;;4.34;61.48;101221.72;4157611;28;20476;-62
2023/03/03 09:04:06;;;;;;;47.60;28.73;;;;;;;4.36;61.30;101228.69;4162977;28;20093;-62
2023/03/03 09:06:09;;;;;;;54.13;31.42;;;;;;;4.34;61.11;101224.28;4161529;28;20041;-62
2023/03/03 09:08:12;;;;;;;44.70;29.23;;;;;;;4.27;61.45;101230.78;4163485;28;20041;-62
2023/03/03 09:10:21;;;;;;;46.67;30.67;;;;;;;4.39;61.04;101227.09;4160084;28;20392;-62
2023/03/03 09:12:30;;;;;;;47.47;30.27;;;;;;;4.24;61.35;101229.75;4152392;28;20107;-63
2023/03/03 09:14:33;;;;;;;48.65;29.58;;;;;;;4.28;61.54;101230.00;4155430;28;20042;-62
2023/03/03 09:16:39;;;;;;;44.58;28.80;;;;;;;4.42;61.40;101238.41;4163269;28;20038;-62
2023/03/03 09:18:44;;;;;;;45.33;30.02;;;;;;;4.54;60.95;101233.91;4163093;28;20030;-62
2023/03/03 09:20:49;;;;;;;50.10;30.80;;;;;;;4.54;60.87;101238.16;4163465;28;20083;-61
2023/03/03 09:22:51;;;;;;;43.45;28.63;;;;;;;4.51;61.67;101231.19;4162971;28;20041;-60
2023/03/03 09:24:58;;;;;;;47.75;29.85;;;;;;;4.68;61.03;101226.00;4163835;28;20431;-61
2023/03/03 09:27:01;;;;;;;47.28;30.27;;;;;;;4.77;60.65;101225.56;4168922;28;20124;-64
2023/03/03 09:29:18;;;;;;;43.50;30.23;;;;;;;4.85;60.50;101235.44;4156493;28;20041;-64
2023/03/03 09:31:25;;;;;;;44.53;28.67;;;;;;;4.82;60.75;101230.16;4166011;28;20045;-65
2023/03/03 09:33:40;;;;;;;45.20;29.23;;;;;;;5.15;59.42;101232.59;4163040;28;20431;-63
2023/03/03 09:35:47;;;;;;;45.00;29.47;;;;;;;5.14;59.56;101232.53;4162302;28;20087;-63
2023/03/03 09:37:50;;;;;;;46.80;30.40;;;;;;;5.21;59.25;101225.19;4155968;28;20491;-64